sensor_id;sensor_type;location;lat;lon;timestamp;temperature;humidity
44982;DHT22;30716;41.740;-70.400;2023-02-25T00:01:24;23.30;36.00
44982;DHT22;30716;41.740;-70.400;2023-02-25T00:03:55;23.30;36.50
44982;DHT22;30716;41.740;-70.400;2023-02-25T00:06:22;23.30;35.60
44982;DHT22;30716;41.740;-70.400;2023-02-25T00:08:49;23.30;36.20
44982;DHT22;30716;41.740;-70.400;2023-02-25T00:11:16;23.30;35.90
44982;DHT22;30716;41.740;-70.400;2023-02-25T00:13:44;23.40;36.40
44982;DHT22;30716;41.740;-70.400;2023-02-25T00:16:12;23.40;36.20
44982;DHT22;30716;41.740;-70.400;2023-02-25T00:18:39;23.40;36.60
44982;DHT22;30716;41.740;-70.400;2023-02-25T00:21:09;23.40;36.90
44982;DHT22;30716;41.740;-70.400;2023-02-25T00:23:44;23.40;36.70
44982;DHT22;30716;41.740;-70.400;2023-02-25T00:26:11;23.40;37.60
44982;DHT22;30716;41.740;-70.400;2023-02-25T00:28:38;23.30;36.60
44982;DHT22;30716;41.740;-70.400;2023-02-25T00:31:15;23.30;36.80
44982;DHT22;30716;41.740;-70.400;2023-02-25T00:33:42;23.30;36.70
44982;DHT22;30716;41.740;-70.400;2023-02-25T00:36:13;23.30;36.70
44982;DHT22;30716;41.740;-70.400;2023-02-25T00:38:45;23.30;37.60
44982;DHT22;30716;41.740;-70.400;2023-02-25T00:41:18;23.30;37.40
44982;DHT22;30716;41.740;-70.400;2023-02-25T00:43:53;23.30;37.50
44982;DHT22;30716;41.740;-70.400;2023-02-25T00:46:19;23.30;37.60
44982;DHT22;30716;41.740;-70.400;2023-02-25T00:48:45;23.30;36.70
44982;DHT22;30716;41.740;-70.400;2023-02-25T00:51:15;23.30;37.10
44982;DHT22;30716;41.740;-70.400;2023-02-25T00:53:43;23.30;37.20
44982;DHT22;30716;41.740;-70.400;2023-02-25T00:56:10;23.30;36.90
44982;DHT22;30716;41.740;-70.400;2023-02-25T00:58:41;23.30;37.30
44982;DHT22;30716;41.740;-70.400;2023-02-25T01:01:24;23.30;37.70
44982;DHT22;30716;41.740;-70.400;2023-02-25T01:03:53;23.30;37.30
44982;DHT22;30716;41.740;-70.400;2023-02-25T01:06:21;23.30;37.40
44982;DHT22;30716;41.740;-70.400;2023-02-25T01:08:48;23.30;36.90
44982;DHT22;30716;41.740;-70.400;2023-02-25T01:11:20;23.30;37.10
44982;DHT22;30716;41.740;-70.400;2023-02-25T01:13:49;23.30;37.00
44982;DHT22;30716;41.740;-70.400;2023-02-25T01:16:19;23.30;36.50
44982;DHT22;30716;41.740;-70.400;2023-02-25T01:18:46;23.30;37.10
44982;DHT22;30716;41.740;-70.400;2023-02-25T01:21:17;23.30;36.70
44982;DHT22;30716;41.740;-70.400;2023-02-25T01:23:46;23.30;36.80
44982;DHT22;30716;41.740;-70.400;2023-02-25T01:26:14;23.30;36.70
44982;DHT22;30716;41.740;-70.400;2023-02-25T01:28:40;23.30;37.10
44982;DHT22;30716;41.740;-70.400;2023-02-25T01:31:11;23.30;36.70
44982;DHT22;30716;41.740;-70.400;2023-02-25T01:33:41;23.30;36.60
44982;DHT22;30716;41.740;-70.400;2023-02-25T01:36:08;23.30;37.00
44982;DHT22;30716;41.740;-70.400;2023-02-25T01:38:35;23.30;37.10
44982;DHT22;30716;41.740;-70.400;2023-02-25T01:41:02;23.30;37.10
44982;DHT22;30716;41.740;-70.400;2023-02-25T01:43:28;23.30;37.30
44982;DHT22;30716;41.740;-70.400;2023-02-25T01:45:55;23.30;36.80
44982;DHT22;30716;41.740;-70.400;2023-02-25T01:48:26;23.30;36.90
44982;DHT22;30716;41.740;-70.400;2023-02-25T01:51:12;23.30;36.50
44982;DHT22;30716;41.740;-70.400;2023-02-25T01:53:43;23.30;37.10
44982;DHT22;30716;41.740;-70.400;2023-02-25T01:56:15;23.30;36.40
44982;DHT22;30716;41.740;-70.400;2023-02-25T01:58:42;23.30;37.20
44982;DHT22;30716;41.740;-70.400;2023-02-25T02:01:16;23.30;37.50
44982;DHT22;30716;41.740;-70.400;2023-02-25T02:03:44;23.30;36.50
44982;DHT22;30716;41.740;-70.400;2023-02-25T02:06:32;23.30;37.30
44982;DHT22;30716;41.740;-70.400;2023-02-25T02:09:05;23.30;37.40
44982;DHT22;30716;41.740;-70.400;2023-02-25T02:11:32;23.20;37.60
44982;DHT22;30716;41.740;-70.400;2023-02-25T02:14:00;23.20;37.00
44982;DHT22;30716;41.740;-70.400;2023-02-25T02:22:17;23.20;35.70
44982;DHT22;30716;41.740;-70.400;2023-02-25T02:25:14;23.20;35.30
44982;DHT22;30716;41.740;-70.400;2023-02-25T02:41:02;23.20;35.50
44982;DHT22;30716;41.740;-70.400;2023-02-25T02:43:51;23.10;36.50
44982;DHT22;30716;41.740;-70.400;2023-02-25T02:46:32;23.20;36.20
44982;DHT22;30716;41.740;-70.400;2023-02-25T02:49:12;23.10;35.50
44982;DHT22;30716;41.740;-70.400;2023-02-25T02:51:51;23.10;35.70
44982;DHT22;30716;41.740;-70.400;2023-02-25T02:54:19;23.10;35.10
44982;DHT22;30716;41.740;-70.400;2023-02-25T02:56:47;23.00;36.00
44982;DHT22;30716;41.740;-70.400;2023-02-25T02:59:24;23.00;35.20
44982;DHT22;30716;41.740;-70.400;2023-02-25T03:02:00;23.00;35.40
44982;DHT22;30716;41.740;-70.400;2023-02-25T03:04:32;23.10;36.50
44982;DHT22;30716;41.740;-70.400;2023-02-25T03:07:10;23.10;35.90
44982;DHT22;30716;41.740;-70.400;2023-02-25T03:09:59;23.10;36.20
44982;DHT22;30716;41.740;-70.400;2023-02-25T03:12:28;23.10;36.00
44982;DHT22;30716;41.740;-70.400;2023-02-25T03:14:56;23.00;36.20
44982;DHT22;30716;41.740;-70.400;2023-02-25T03:17:32;23.00;35.90
44982;DHT22;30716;41.740;-70.400;2023-02-25T03:20:15;23.00;36.10
44982;DHT22;30716;41.740;-70.400;2023-02-25T03:22:46;23.00;35.60
44982;DHT22;30716;41.740;-70.400;2023-02-25T03:27:50;23.00;37.10
44982;DHT22;30716;41.740;-70.400;2023-02-25T03:30:38;23.00;36.60
44982;DHT22;30716;41.740;-70.400;2023-02-25T03:33:13;23.00;36.90
44982;DHT22;30716;41.740;-70.400;2023-02-25T03:35:41;23.00;35.70
44982;DHT22;30716;41.740;-70.400;2023-02-25T03:38:13;23.00;36.30
44982;DHT22;30716;41.740;-70.400;2023-02-25T03:40:41;23.00;36.20
44982;DHT22;30716;41.740;-70.400;2023-02-25T03:43:10;23.00;37.20
44982;DHT22;30716;41.740;-70.400;2023-02-25T03:45:40;23.00;37.30
44982;DHT22;30716;41.740;-70.400;2023-02-25T03:48:09;23.00;36.50
44982;DHT22;30716;41.740;-70.400;2023-02-25T03:50:55;23.00;36.60
44982;DHT22;30716;41.740;-70.400;2023-02-25T03:53:25;23.00;36.50
44982;DHT22;30716;41.740;-70.400;2023-02-25T03:55:51;23.00;37.10
44982;DHT22;30716;41.740;-70.400;2023-02-25T03:58:18;22.90;36.50
44982;DHT22;30716;41.740;-70.400;2023-02-25T04:00:46;23.00;37.60
44982;DHT22;30716;41.740;-70.400;2023-02-25T04:03:13;22.90;37.80
44982;DHT22;30716;41.740;-70.400;2023-02-25T04:05:39;22.90;37.90
44982;DHT22;30716;41.740;-70.400;2023-02-25T04:08:05;22.90;37.70
44982;DHT22;30716;41.740;-70.400;2023-02-25T04:10:44;22.90;36.50
44982;DHT22;30716;41.740;-70.400;2023-02-25T04:13:12;23.00;36.80
44982;DHT22;30716;41.740;-70.400;2023-02-25T04:15:39;22.90;35.80
44982;DHT22;30716;41.740;-70.400;2023-02-25T04:18:06;22.90;36.10
44982;DHT22;30716;41.740;-70.400;2023-02-25T04:20:32;23.00;36.40
44982;DHT22;30716;41.740;-70.400;2023-02-25T04:23:00;22.90;36.80
44982;DHT22;30716;41.740;-70.400;2023-02-25T04:25:27;22.90;35.80
44982;DHT22;30716;41.740;-70.400;2023-02-25T04:27:53;22.90;36.80
44982;DHT22;30716;41.740;-70.400;2023-02-25T04:30:19;22.90;36.20
44982;DHT22;30716;41.740;-70.400;2023-02-25T04:32:46;22.90;37.60
44982;DHT22;30716;41.740;-70.400;2023-02-25T04:35:12;22.90;37.00
44982;DHT22;30716;41.740;-70.400;2023-02-25T04:37:40;22.90;37.10
44982;DHT22;30716;41.740;-70.400;2023-02-25T04:40:09;22.90;36.80
44982;DHT22;30716;41.740;-70.400;2023-02-25T04:42:39;22.90;37.50
44982;DHT22;30716;41.740;-70.400;2023-02-25T04:45:06;22.90;37.80
44982;DHT22;30716;41.740;-70.400;2023-02-25T04:47:33;22.80;37.30
44982;DHT22;30716;41.740;-70.400;2023-02-25T04:49:59;22.80;37.70
44982;DHT22;30716;41.740;-70.400;2023-02-25T04:52:26;22.80;37.40
44982;DHT22;30716;41.740;-70.400;2023-02-25T04:54:52;22.80;37.30
44982;DHT22;30716;41.740;-70.400;2023-02-25T04:57:19;22.80;37.70
44982;DHT22;30716;41.740;-70.400;2023-02-25T04:59:45;22.80;37.70
44982;DHT22;30716;41.740;-70.400;2023-02-25T05:02:11;22.80;37.50
44982;DHT22;30716;41.740;-70.400;2023-02-25T05:04:38;22.80;37.00
44982;DHT22;30716;41.740;-70.400;2023-02-25T05:07:06;22.80;37.00
44982;DHT22;30716;41.740;-70.400;2023-02-25T05:09:32;22.80;36.40
44982;DHT22;30716;41.740;-70.400;2023-02-25T05:11:59;22.80;36.10
44982;DHT22;30716;41.740;-70.400;2023-02-25T05:14:26;22.80;36.40
44982;DHT22;30716;41.740;-70.400;2023-02-25T05:16:52;22.80;35.90
44982;DHT22;30716;41.740;-70.400;2023-02-25T05:19:20;22.80;36.50
44982;DHT22;30716;41.740;-70.400;2023-02-25T05:21:51;22.70;35.60
44982;DHT22;30716;41.740;-70.400;2023-02-25T05:24:18;22.70;35.50
44982;DHT22;30716;41.740;-70.400;2023-02-25T05:26:45;22.70;35.60
44982;DHT22;30716;41.740;-70.400;2023-02-25T05:29:11;22.70;35.30
44982;DHT22;30716;41.740;-70.400;2023-02-25T05:31:38;22.70;35.10
44982;DHT22;30716;41.740;-70.400;2023-02-25T05:34:05;22.70;36.40
44982;DHT22;30716;41.740;-70.400;2023-02-25T05:36:31;22.70;35.20
44982;DHT22;30716;41.740;-70.400;2023-02-25T05:38:58;22.70;36.40
44982;DHT22;30716;41.740;-70.400;2023-02-25T05:41:27;22.80;36.00
44982;DHT22;30716;41.740;-70.400;2023-02-25T05:43:55;22.80;35.20
44982;DHT22;30716;41.740;-70.400;2023-02-25T05:46:21;22.80;35.10
44982;DHT22;30716;41.740;-70.400;2023-02-25T05:48:47;22.80;36.40
44982;DHT22;30716;41.740;-70.400;2023-02-25T05:51:17;22.70;35.70
44982;DHT22;30716;41.740;-70.400;2023-02-25T05:53:44;22.80;35.30
44982;DHT22;30716;41.740;-70.400;2023-02-25T05:56:14;22.70;36.40
44982;DHT22;30716;41.740;-70.400;2023-02-25T05:58:41;22.70;36.00
44982;DHT22;30716;41.740;-70.400;2023-02-25T06:01:12;22.70;36.80
44982;DHT22;30716;41.740;-70.400;2023-02-25T06:03:43;22.70;36.10
44982;DHT22;30716;41.740;-70.400;2023-02-25T06:06:11;22.70;36.20
44982;DHT22;30716;41.740;-70.400;2023-02-25T06:08:41;22.70;36.70
44982;DHT22;30716;41.740;-70.400;2023-02-25T06:11:12;22.70;35.20
44982;DHT22;30716;41.740;-70.400;2023-02-25T06:13:41;22.60;36.20
44982;DHT22;30716;41.740;-70.400;2023-02-25T06:16:07;22.60;36.60
44982;DHT22;30716;41.740;-70.400;2023-02-25T06:18:34;22.60;35.70
44982;DHT22;30716;41.740;-70.400;2023-02-25T06:21:06;22.60;36.10
44982;DHT22;30716;41.740;-70.400;2023-02-25T06:23:33;22.60;35.20
44982;DHT22;30716;41.740;-70.400;2023-02-25T06:26:00;22.60;35.80
44982;DHT22;30716;41.740;-70.400;2023-02-25T06:28:26;22.60;36.00
44982;DHT22;30716;41.740;-70.400;2023-02-25T06:30:52;22.60;35.70
44982;DHT22;30716;41.740;-70.400;2023-02-25T06:33:18;22.60;35.20
44982;DHT22;30716;41.740;-70.400;2023-02-25T06:35:44;22.60;35.20
44982;DHT22;30716;41.740;-70.400;2023-02-25T06:38:14;22.60;36.30
44982;DHT22;30716;41.740;-70.400;2023-02-25T06:40:40;22.50;35.80
44982;DHT22;30716;41.740;-70.400;2023-02-25T06:43:07;22.50;35.40
44982;DHT22;30716;41.740;-70.400;2023-02-25T06:45:33;22.50;34.50
44982;DHT22;30716;41.740;-70.400;2023-02-25T06:47:59;22.50;35.20
44982;DHT22;30716;41.740;-70.400;2023-02-25T06:50:25;22.50;36.00
44982;DHT22;30716;41.740;-70.400;2023-02-25T06:52:51;22.50;35.50
44982;DHT22;30716;41.740;-70.400;2023-02-25T06:55:17;22.50;35.70
44982;DHT22;30716;41.740;-70.400;2023-02-25T06:57:44;22.50;34.80
44982;DHT22;30716;41.740;-70.400;2023-02-25T07:00:11;22.50;36.50
44982;DHT22;30716;41.740;-70.400;2023-02-25T07:02:37;22.50;35.40
44982;DHT22;30716;41.740;-70.400;2023-02-25T07:05:03;22.50;35.20
44982;DHT22;30716;41.740;-70.400;2023-02-25T07:07:30;22.50;35.50
44982;DHT22;30716;41.740;-70.400;2023-02-25T07:09:56;22.50;35.10
44982;DHT22;30716;41.740;-70.400;2023-02-25T07:12:22;22.50;35.20
44982;DHT22;30716;41.740;-70.400;2023-02-25T07:14:49;22.50;34.50
44982;DHT22;30716;41.740;-70.400;2023-02-25T07:17:15;22.50;35.50
44982;DHT22;30716;41.740;-70.400;2023-02-25T07:19:41;22.50;35.10
44982;DHT22;30716;41.740;-70.400;2023-02-25T07:22:13;22.40;34.60
44982;DHT22;30716;41.740;-70.400;2023-02-25T07:24:39;22.40;35.90
44982;DHT22;30716;41.740;-70.400;2023-02-25T07:27:05;22.40;36.00
44982;DHT22;30716;41.740;-70.400;2023-02-25T07:29:32;22.40;36.20
44982;DHT22;30716;41.740;-70.400;2023-02-25T07:31:59;22.30;35.40
44982;DHT22;30716;41.740;-70.400;2023-02-25T07:34:26;22.30;36.00
44982;DHT22;30716;41.740;-70.400;2023-02-25T07:36:52;22.30;36.00
44982;DHT22;30716;41.740;-70.400;2023-02-25T07:39:18;22.30;35.60
44982;DHT22;30716;41.740;-70.400;2023-02-25T07:41:44;22.30;36.00
44982;DHT22;30716;41.740;-70.400;2023-02-25T07:44:10;22.20;35.30
44982;DHT22;30716;41.740;-70.400;2023-02-25T07:46:36;22.20;33.90
44982;DHT22;30716;41.740;-70.400;2023-02-25T07:49:04;22.20;34.70
44982;DHT22;30716;41.740;-70.400;2023-02-25T07:51:30;22.20;34.60
44982;DHT22;30716;41.740;-70.400;2023-02-25T07:53:57;22.20;33.80
44982;DHT22;30716;41.740;-70.400;2023-02-25T07:56:25;22.20;34.80
44982;DHT22;30716;41.740;-70.400;2023-02-25T07:58:52;22.20;35.50
44982;DHT22;30716;41.740;-70.400;2023-02-25T08:01:21;22.20;35.30
44982;DHT22;30716;41.740;-70.400;2023-02-25T08:03:50;22.20;34.20
44982;DHT22;30716;41.740;-70.400;2023-02-25T08:06:16;22.10;34.40
44982;DHT22;30716;41.740;-70.400;2023-02-25T08:08:43;22.10;34.10
44982;DHT22;30716;41.740;-70.400;2023-02-25T08:11:11;22.10;35.20
44982;DHT22;30716;41.740;-70.400;2023-02-25T08:13:38;22.10;34.80
44982;DHT22;30716;41.740;-70.400;2023-02-25T08:16:05;22.10;35.60
44982;DHT22;30716;41.740;-70.400;2023-02-25T08:18:32;22.10;34.50
44982;DHT22;30716;41.740;-70.400;2023-02-25T08:20:58;22.10;34.90
44982;DHT22;30716;41.740;-70.400;2023-02-25T08:23:25;22.10;33.70
44982;DHT22;30716;41.740;-70.400;2023-02-25T08:25:56;22.10;34.10
44982;DHT22;30716;41.740;-70.400;2023-02-25T08:28:24;22.10;35.70
44982;DHT22;30716;41.740;-70.400;2023-02-25T08:30:52;22.10;34.40
44982;DHT22;30716;41.740;-70.400;2023-02-25T08:33:19;22.00;34.50
44982;DHT22;30716;41.740;-70.400;2023-02-25T08:35:45;22.10;34.70
44982;DHT22;30716;41.740;-70.400;2023-02-25T08:38:11;22.00;33.70
44982;DHT22;30716;41.740;-70.400;2023-02-25T08:40:38;22.00;34.80
44982;DHT22;30716;41.740;-70.400;2023-02-25T08:43:05;22.10;34.70
44982;DHT22;30716;41.740;-70.400;2023-02-25T08:45:32;22.00;34.40
44982;DHT22;30716;41.740;-70.400;2023-02-25T08:47:58;22.00;33.90
44982;DHT22;30716;41.740;-70.400;2023-02-25T08:50:24;22.00;33.50
44982;DHT22;30716;41.740;-70.400;2023-02-25T08:52:51;22.00;33.30
44982;DHT22;30716;41.740;-70.400;2023-02-25T08:55:17;22.00;35.40
44982;DHT22;30716;41.740;-70.400;2023-02-25T08:57:44;22.00;33.60
44982;DHT22;30716;41.740;-70.400;2023-02-25T09:00:12;22.00;33.80
44982;DHT22;30716;41.740;-70.400;2023-02-25T09:02:42;22.00;34.60
44982;DHT22;30716;41.740;-70.400;2023-02-25T09:05:10;22.00;33.30
44982;DHT22;30716;41.740;-70.400;2023-02-25T09:07:36;22.00;34.10
44982;DHT22;30716;41.740;-70.400;2023-02-25T09:10:03;21.90;33.50
44982;DHT22;30716;41.740;-70.400;2023-02-25T09:12:33;22.00;33.90
44982;DHT22;30716;41.740;-70.400;2023-02-25T09:15:01;22.00;34.80
44982;DHT22;30716;41.740;-70.400;2023-02-25T09:17:27;22.00;33.40
44982;DHT22;30716;41.740;-70.400;2023-02-25T09:19:53;22.00;34.90
44982;DHT22;30716;41.740;-70.400;2023-02-25T09:22:19;22.00;34.30
44982;DHT22;30716;41.740;-70.400;2023-02-25T09:24:45;21.90;33.70
44982;DHT22;30716;41.740;-70.400;2023-02-25T09:27:12;21.90;34.10
44982;DHT22;30716;41.740;-70.400;2023-02-25T09:29:39;21.90;34.00
44982;DHT22;30716;41.740;-70.400;2023-02-25T09:32:06;21.90;34.10
44982;DHT22;30716;41.740;-70.400;2023-02-25T09:34:33;21.90;34.20
44982;DHT22;30716;41.740;-70.400;2023-02-25T09:37:02;21.90;34.00
44982;DHT22;30716;41.740;-70.400;2023-02-25T09:39:29;21.90;34.70
44982;DHT22;30716;41.740;-70.400;2023-02-25T09:42:01;21.90;33.70
44982;DHT22;30716;41.740;-70.400;2023-02-25T09:44:39;22.00;33.90
44982;DHT22;30716;41.740;-70.400;2023-02-25T09:52:41;21.90;34.00
44982;DHT22;30716;41.740;-70.400;2023-02-25T09:55:21;21.90;34.10
44982;DHT22;30716;41.740;-70.400;2023-02-25T10:00:34;21.90;34.70
44982;DHT22;30716;41.740;-70.400;2023-02-25T10:03:10;21.90;33.90
44982;DHT22;30716;41.740;-70.400;2023-02-25T10:05:51;21.90;34.00
44982;DHT22;30716;41.740;-70.400;2023-02-25T10:11:10;21.90;33.50
44982;DHT22;30716;41.740;-70.400;2023-02-25T10:13:58;21.90;33.40
44982;DHT22;30716;41.740;-70.400;2023-02-25T10:23:01;21.80;33.30
44982;DHT22;30716;41.740;-70.400;2023-02-25T10:25:36;21.80;34.00
44982;DHT22;30716;41.740;-70.400;2023-02-25T10:28:13;21.80;33.50
44982;DHT22;30716;41.740;-70.400;2023-02-25T10:30:58;21.80;34.10
44982;DHT22;30716;41.740;-70.400;2023-02-25T10:33:30;21.80;34.00
44982;DHT22;30716;41.740;-70.400;2023-02-25T10:38:37;21.80;33.50
44982;DHT22;30716;41.740;-70.400;2023-02-25T10:41:05;21.80;35.20
44982;DHT22;30716;41.740;-70.400;2023-02-25T10:43:33;21.80;34.00
44982;DHT22;30716;41.740;-70.400;2023-02-25T10:46:25;21.80;33.60
44982;DHT22;30716;41.740;-70.400;2023-02-25T10:49:00;21.80;34.80
44982;DHT22;30716;41.740;-70.400;2023-02-25T10:51:27;21.70;34.50
44982;DHT22;30716;41.740;-70.400;2023-02-25T10:56:27;21.70;34.20
44982;DHT22;30716;41.740;-70.400;2023-02-25T10:59:06;21.70;34.80
44982;DHT22;30716;41.740;-70.400;2023-02-25T11:01:40;21.70;35.30
44982;DHT22;30716;41.740;-70.400;2023-02-25T11:04:12;21.70;34.30
44982;DHT22;30716;41.740;-70.400;2023-02-25T11:06:41;21.70;34.70
44982;DHT22;30716;41.740;-70.400;2023-02-25T11:12:00;21.70;34.40
44982;DHT22;30716;41.740;-70.400;2023-02-25T11:14:35;21.70;33.90
44982;DHT22;30716;41.740;-70.400;2023-02-25T11:19:36;21.70;33.60
44982;DHT22;30716;41.740;-70.400;2023-02-25T11:22:21;21.70;34.20
44982;DHT22;30716;41.740;-70.400;2023-02-25T11:24:57;21.70;33.50
44982;DHT22;30716;41.740;-70.400;2023-02-25T11:27:37;21.70;34.20
44982;DHT22;30716;41.740;-70.400;2023-02-25T11:30:25;21.60;34.20
44982;DHT22;30716;41.740;-70.400;2023-02-25T11:32:57;21.70;34.50
44982;DHT22;30716;41.740;-70.400;2023-02-25T11:35:26;21.60;33.90
44982;DHT22;30716;41.740;-70.400;2023-02-25T11:37:57;21.60;34.10
44982;DHT22;30716;41.740;-70.400;2023-02-25T11:40:29;21.60;34.00
44982;DHT22;30716;41.740;-70.400;2023-02-25T11:45:30;21.60;34.20
44982;DHT22;30716;41.740;-70.400;2023-02-25T11:47:57;21.60;34.90
44982;DHT22;30716;41.740;-70.400;2023-02-25T12:01:41;22.00;33.70
44982;DHT22;30716;41.740;-70.400;2023-02-25T12:04:27;22.20;33.00
44982;DHT22;30716;41.740;-70.400;2023-02-25T12:12:59;23.00;33.50
44982;DHT22;30716;41.740;-70.400;2023-02-25T12:23:48;23.50;30.70
44982;DHT22;30716;41.740;-70.400;2023-02-25T12:43:05;23.20;30.40
44982;DHT22;30716;41.740;-70.400;2023-02-25T12:48:21;23.30;30.10
44982;DHT22;30716;41.740;-70.400;2023-02-25T12:57:21;23.50;29.90
44982;DHT22;30716;41.740;-70.400;2023-02-25T13:00:52;23.60;30.70
44982;DHT22;30716;41.740;-70.400;2023-02-25T13:10:58;24.00;29.80
44982;DHT22;30716;41.740;-70.400;2023-02-25T13:14:03;24.20;29.60
44982;DHT22;30716;41.740;-70.400;2023-02-25T13:27:32;24.30;30.40
44982;DHT22;30716;41.740;-70.400;2023-02-25T13:35:44;24.40;30.30
44982;DHT22;30716;41.740;-70.400;2023-02-25T13:46:45;24.70;30.50
44982;DHT22;30716;41.740;-70.400;2023-02-25T13:52:24;24.80;30.30
44982;DHT22;30716;41.740;-70.400;2023-02-25T14:00:47;25.10;30.90
44982;DHT22;30716;41.740;-70.400;2023-02-25T14:22:54;25.40;30.10
44982;DHT22;30716;41.740;-70.400;2023-02-25T14:28:00;25.40;30.00
44982;DHT22;30716;41.740;-70.400;2023-02-25T14:44:19;25.40;32.30
44982;DHT22;30716;41.740;-70.400;2023-02-25T14:47:00;25.40;30.60
44982;DHT22;30716;41.740;-70.400;2023-02-25T14:49:32;25.40;32.30
44982;DHT22;30716;41.740;-70.400;2023-02-25T15:19:34;25.30;30.50
44982;DHT22;30716;41.740;-70.400;2023-02-25T15:22:25;25.30;30.20
44982;DHT22;30716;41.740;-70.400;2023-02-25T15:27:50;25.30;32.20
44982;DHT22;30716;41.740;-70.400;2023-02-25T15:30:22;25.30;32.20
44982;DHT22;30716;41.740;-70.400;2023-02-25T15:33:20;25.20;32.10
44982;DHT22;30716;41.740;-70.400;2023-02-25T15:39:04;25.30;32.20
44982;DHT22;30716;41.740;-70.400;2023-02-25T15:44:00;25.40;32.30
44982;DHT22;30716;41.740;-70.400;2023-02-25T15:46:47;25.40;32.30
44982;DHT22;30716;41.740;-70.400;2023-02-25T15:49:17;25.40;32.30
44982;DHT22;30716;41.740;-70.400;2023-02-25T15:51:56;25.40;32.30
44982;DHT22;30716;41.740;-70.400;2023-02-25T15:59:58;25.50;32.40
44982;DHT22;30716;41.740;-70.400;2023-02-25T16:07:49;25.50;32.30
44982;DHT22;30716;41.740;-70.400;2023-02-25T16:10:34;25.50;31.20
44982;DHT22;30716;41.740;-70.400;2023-02-25T16:13:01;25.60;31.80
44982;DHT22;30716;41.740;-70.400;2023-02-25T16:15:54;25.60;32.40
44982;DHT22;30716;41.740;-70.400;2023-02-25T16:18:23;25.60;31.60
44982;DHT22;30716;41.740;-70.400;2023-02-25T16:20:53;25.60;31.00
44982;DHT22;30716;41.740;-70.400;2023-02-25T16:23:23;25.60;31.00
44982;DHT22;30716;41.740;-70.400;2023-02-25T16:32:30;25.50;29.90
44982;DHT22;30716;41.740;-70.400;2023-02-25T16:37:16;25.60;30.00
44982;DHT22;30716;41.740;-70.400;2023-02-25T16:39:47;25.60;29.90
44982;DHT22;30716;41.740;-70.400;2023-02-25T16:42:16;25.60;30.00
44982;DHT22;30716;41.740;-70.400;2023-02-25T16:44:56;25.60;30.00
44982;DHT22;30716;41.740;-70.400;2023-02-25T16:47:26;25.60;30.10
44982;DHT22;30716;41.740;-70.400;2023-02-25T16:49:54;25.60;30.20
44982;DHT22;30716;41.740;-70.400;2023-02-25T16:55:04;25.60;30.20
44982;DHT22;30716;41.740;-70.400;2023-02-25T16:57:33;25.60;30.00
44982;DHT22;30716;41.740;-70.400;2023-02-25T17:00:18;25.60;30.20
44982;DHT22;30716;41.740;-70.400;2023-02-25T17:02:50;25.70;30.40
44982;DHT22;30716;41.740;-70.400;2023-02-25T17:05:36;25.70;30.10
44982;DHT22;30716;41.740;-70.400;2023-02-25T17:08:10;25.80;30.10
44982;DHT22;30716;41.740;-70.400;2023-02-25T17:10:50;25.80;30.20
44982;DHT22;30716;41.740;-70.400;2023-02-25T17:13:33;25.90;30.10
44982;DHT22;30716;41.740;-70.400;2023-02-25T17:16:02;25.90;30.20
44982;DHT22;30716;41.740;-70.400;2023-02-25T17:18:30;25.90;30.10
44982;DHT22;30716;41.740;-70.400;2023-02-25T17:21:07;25.80;30.40
44982;DHT22;30716;41.740;-70.400;2023-02-25T17:23:41;25.90;30.70
44982;DHT22;30716;41.740;-70.400;2023-02-25T17:26:12;25.80;30.40
44982;DHT22;30716;41.740;-70.400;2023-02-25T17:28:39;25.80;30.40
44982;DHT22;30716;41.740;-70.400;2023-02-25T17:31:11;25.80;30.20
44982;DHT22;30716;41.740;-70.400;2023-02-25T17:33:50;25.80;31.70
44982;DHT22;30716;41.740;-70.400;2023-02-25T17:36:21;25.80;32.60
44982;DHT22;30716;41.740;-70.400;2023-02-25T17:38:51;25.80;31.90
44982;DHT22;30716;41.740;-70.400;2023-02-25T17:41:19;25.80;31.60
44982;DHT22;30716;41.740;-70.400;2023-02-25T17:43:46;25.80;31.00
44982;DHT22;30716;41.740;-70.400;2023-02-25T17:49:02;25.80;31.30
44982;DHT22;30716;41.740;-70.400;2023-02-25T17:51:34;25.80;30.50
44982;DHT22;30716;41.740;-70.400;2023-02-25T17:54:05;25.80;30.80
44982;DHT22;30716;41.740;-70.400;2023-02-25T17:56:33;25.80;32.00
44982;DHT22;30716;41.740;-70.400;2023-02-25T17:59:07;25.70;31.50
44982;DHT22;30716;41.740;-70.400;2023-02-25T18:01:57;25.70;32.40
44982;DHT22;30716;41.740;-70.400;2023-02-25T18:04:39;25.70;30.80
44982;DHT22;30716;41.740;-70.400;2023-02-25T18:07:32;25.70;31.00
44982;DHT22;30716;41.740;-70.400;2023-02-25T18:09:59;25.70;30.80
44982;DHT22;30716;41.740;-70.400;2023-02-25T18:12:29;25.70;30.80
44982;DHT22;30716;41.740;-70.400;2023-02-25T18:15:00;25.70;32.50
44982;DHT22;30716;41.740;-70.400;2023-02-25T18:17:36;25.70;31.80
44982;DHT22;30716;41.740;-70.400;2023-02-25T18:20:06;25.60;31.40
44982;DHT22;30716;41.740;-70.400;2023-02-25T18:22:40;25.60;32.00
44982;DHT22;30716;41.740;-70.400;2023-02-25T18:25:32;25.60;31.10
44982;DHT22;30716;41.740;-70.400;2023-02-25T18:27:59;25.50;31.00
44982;DHT22;30716;41.740;-70.400;2023-02-25T18:30:28;25.60;32.40
44982;DHT22;30716;41.740;-70.400;2023-02-25T18:32:55;25.70;32.50
44982;DHT22;30716;41.740;-70.400;2023-02-25T18:35:29;25.70;32.50
44982;DHT22;30716;41.740;-70.400;2023-02-25T18:37:57;25.80;32.60
44982;DHT22;30716;41.740;-70.400;2023-02-25T18:40:27;25.80;32.50
44982;DHT22;30716;41.740;-70.400;2023-02-25T18:42:55;25.80;32.50
44982;DHT22;30716;41.740;-70.400;2023-02-25T18:45:23;25.80;32.60
44982;DHT22;30716;41.740;-70.400;2023-02-25T18:47:50;25.80;32.60
44982;DHT22;30716;41.740;-70.400;2023-02-25T18:50:17;25.80;32.60
44982;DHT22;30716;41.740;-70.400;2023-02-25T18:52:44;25.80;32.60
44982;DHT22;30716;41.740;-70.400;2023-02-25T18:55:24;25.80;32.60
44982;DHT22;30716;41.740;-70.400;2023-02-25T18:57:51;25.70;32.50
44982;DHT22;30716;41.740;-70.400;2023-02-25T19:00:20;25.80;32.50
44982;DHT22;30716;41.740;-70.400;2023-02-25T19:02:54;25.80;32.60
44982;DHT22;30716;41.740;-70.400;2023-02-25T19:05:22;25.80;32.60
44982;DHT22;30716;41.740;-70.400;2023-02-25T19:07:50;25.80;32.60
44982;DHT22;30716;41.740;-70.400;2023-02-25T19:10:25;25.80;32.60
44982;DHT22;30716;41.740;-70.400;2023-02-25T19:12:59;25.70;32.80
44982;DHT22;30716;41.740;-70.400;2023-02-25T19:24:57;24.60;33.30
44982;DHT22;30716;41.740;-70.400;2023-02-25T19:27:26;24.40;34.20
44982;DHT22;30716;41.740;-70.400;2023-02-25T19:29:57;24.20;34.20
44982;DHT22;30716;41.740;-70.400;2023-02-25T19:32:24;24.20;34.10
44982;DHT22;30716;41.740;-70.400;2023-02-25T19:34:53;24.20;34.50
44982;DHT22;30716;41.740;-70.400;2023-02-25T19:37:19;24.10;34.30